createdAt,value
2018-10-16T00:01:52.221Z,99075.34
2018-10-16T00:04:28.889Z,99069.48
2018-10-16T00:07:04.379Z,99070.86
2018-10-16T00:09:41.091Z,99082.80
2018-10-16T00:12:15.613Z,99082.52
2018-10-16T00:14:51.149Z,99078.79
2018-10-16T00:17:25.973Z,99083.52
2018-10-16T00:20:03.857Z,99085.66
2018-10-16T00:22:38.484Z,99091.22
2018-10-16T00:25:15.032Z,99087.89
2018-10-16T00:27:49.755Z,99086.62
2018-10-16T00:30:24.270Z,99092.38
2018-10-16T00:32:59.022Z,99097.02
2018-10-16T00:35:36.052Z,99097.53
2018-10-16T00:38:10.568Z,99100.20
2018-10-16T00:40:51.133Z,99101.02
2018-10-16T00:43:45.419Z,99095.25
2018-10-16T00:46:21.584Z,99100.25
2018-10-16T00:48:56.483Z,99109.13
2018-10-16T00:51:32.309Z,99107.47
2018-10-16T00:54:17.380Z,99108.97
2018-10-16T00:56:52.242Z,99108.59
2018-10-16T00:59:26.809Z,99119.16
2018-10-16T01:02:01.318Z,99116.72
2018-10-16T01:04:36.281Z,99119.41
2018-10-16T01:07:10.810Z,99128.44
2018-10-16T01:09:45.680Z,99122.84
2018-10-16T01:12:20.364Z,99126.65
2018-10-16T01:14:55.030Z,99125.30
2018-10-16T01:17:29.567Z,99128.07
2018-10-16T01:20:04.077Z,99128.17
2018-10-16T01:22:38.980Z,99131.99
2018-10-16T01:25:14.071Z,99135.95
2018-10-16T01:27:48.947Z,99127.41
2018-10-16T01:30:23.482Z,99132.35
2018-10-16T01:32:58.059Z,99135.98
2018-10-16T01:35:32.925Z,99137.81
2018-10-16T01:38:07.622Z,99128.77
2018-10-16T01:40:42.492Z,99137.95
2018-10-16T01:43:19.230Z,99135.58
2018-10-16T01:45:53.722Z,99131.43
2018-10-16T01:48:51.008Z,99129.30
2018-10-16T01:51:25.983Z,99131.17
2018-10-16T01:54:01.337Z,99123.74
2018-10-16T01:56:35.941Z,99124.01
2018-10-16T01:59:10.717Z,99127.08
2018-10-16T02:01:45.373Z,99120.00
2018-10-16T02:04:19.947Z,99118.75
2018-10-16T02:06:55.433Z,99120.92
2018-10-16T02:09:29.951Z,99122.17
2018-10-16T02:12:04.570Z,99122.51
2018-10-16T02:14:39.296Z,99121.77
2018-10-16T02:17:14.040Z,99124.20
2018-10-16T02:19:48.993Z,99123.77
2018-10-16T02:22:35.104Z,99126.56
2018-10-16T02:25:11.624Z,99128.55
2018-10-16T02:27:46.126Z,99127.75
2018-10-16T02:30:34.897Z,99130.02
2018-10-16T02:33:09.857Z,99124.91
2018-10-16T02:35:44.472Z,99131.87
2018-10-16T02:38:19.286Z,99124.80
2018-10-16T02:40:54.114Z,99129.81
2018-10-16T02:43:28.625Z,99131.77
2018-10-16T02:46:03.668Z,99129.58
2018-10-16T02:48:38.619Z,99132.06
2018-10-16T02:51:13.226Z,99128.66
2018-10-16T02:53:47.955Z,99135.64
2018-10-16T02:56:22.736Z,99132.39
2018-10-16T02:58:57.871Z,99133.53
2018-10-16T03:01:32.506Z,99142.95
2018-10-16T03:04:07.136Z,99143.62
2018-10-16T03:06:41.999Z,99143.19
2018-10-16T03:09:16.719Z,99150.03
2018-10-16T03:11:51.660Z,99152.61
2018-10-16T03:14:26.637Z,99154.21
2018-10-16T03:17:01.573Z,99154.42
2018-10-16T03:19:36.254Z,99153.84
2018-10-16T03:22:11.381Z,99153.61
2018-10-16T03:24:46.277Z,99154.16
2018-10-16T03:27:21.318Z,99152.32
2018-10-16T03:29:56.275Z,99151.59
2018-10-16T03:32:30.813Z,99153.25
2018-10-16T03:35:20.247Z,99153.95
2018-10-16T03:37:54.932Z,99158.09
2018-10-16T03:40:29.576Z,99157.52
2018-10-16T03:43:04.100Z,99158.55
2018-10-16T03:45:38.953Z,99160.83
2018-10-16T03:48:13.798Z,99159.42
2018-10-16T03:50:48.331Z,99165.91
2018-10-16T03:53:23.008Z,99164.41
2018-10-16T03:55:57.785Z,99164.25
2018-10-16T03:58:32.457Z,99168.21
2018-10-16T04:01:06.992Z,99169.41
2018-10-16T04:03:42.006Z,99174.91
2018-10-16T04:06:16.889Z,99162.60
2018-10-16T04:08:52.276Z,99165.11
2018-10-16T04:11:26.953Z,99168.96
2018-10-16T04:14:01.964Z,99173.52
2018-10-16T04:16:37.024Z,99175.63
2018-10-16T04:19:11.745Z,99173.40
2018-10-16T04:21:47.409Z,99177.70
2018-10-16T04:24:22.053Z,99172.47
2018-10-16T04:26:56.620Z,99172.70
2018-10-16T04:29:31.255Z,99174.77
2018-10-16T04:32:06.796Z,99178.07
2018-10-16T04:34:41.901Z,99180.37
2018-10-16T04:37:16.398Z,99177.50
2018-10-16T04:39:50.925Z,99182.72
2018-10-16T04:42:25.448Z,99193.40
2018-10-16T04:44:59.986Z,99196.60
2018-10-16T04:47:34.496Z,99195.00
2018-10-16T04:50:10.149Z,99190.66
2018-10-16T04:52:44.718Z,99191.09
2018-10-16T04:55:19.503Z,99196.03
2018-10-16T04:57:53.981Z,99198.17
2018-10-16T05:00:29.095Z,99198.03
2018-10-16T05:03:03.768Z,99197.97
2018-10-16T05:05:38.384Z,99192.59
2018-10-16T05:08:12.920Z,99198.30
2018-10-16T05:10:47.624Z,99200.34
2018-10-16T05:13:22.335Z,99202.50
2018-10-16T05:15:56.812Z,99202.50
2018-10-16T05:18:31.604Z,99200.34
2018-10-16T05:21:06.246Z,99202.70
2018-10-16T05:23:40.739Z,99205.97
2018-10-16T05:26:15.517Z,99203.60
2018-10-16T05:28:50.158Z,99206.23
2018-10-16T05:31:25.077Z,99207.94
2018-10-16T05:33:59.389Z,99204.92
2018-10-16T05:36:33.998Z,99210.30
2018-10-16T05:39:11.367Z,99213.03
2018-10-16T05:41:46.104Z,99216.23
2018-10-16T05:44:20.578Z,99212.94
2018-10-16T05:46:55.241Z,99209.44
2018-10-16T05:49:29.912Z,99221.36
2018-10-16T05:52:04.433Z,99215.09
2018-10-16T05:54:39.356Z,99220.56
2018-10-16T05:57:13.860Z,99221.09
2018-10-16T05:59:48.836Z,99224.30
2018-10-16T06:02:23.928Z,99230.57
2018-10-16T06:04:58.500Z,99219.96
2018-10-16T06:07:33.092Z,99229.64
2018-10-16T06:10:08.081Z,99234.30
2018-10-16T06:12:42.688Z,99231.38
2018-10-16T06:15:17.388Z,99240.44
2018-10-16T06:17:51.994Z,99244.30
2018-10-16T06:20:26.439Z,99246.14
2018-10-16T06:23:01.116Z,99254.16
2018-10-16T06:25:35.707Z,99255.09
2018-10-16T06:28:17.067Z,99259.27
2018-10-16T06:30:51.583Z,99259.55
2018-10-16T06:33:29.496Z,99262.31
2018-10-16T06:36:04.620Z,99250.61
2018-10-16T06:38:39.209Z,99252.27
2018-10-16T06:41:14.315Z,99258.84
2018-10-16T06:43:48.986Z,99257.38
2018-10-16T06:46:23.453Z,99255.00
2018-10-16T06:48:58.122Z,99260.98
2018-10-16T06:51:32.733Z,99263.71
2018-10-16T06:54:07.712Z,99265.52
2018-10-16T06:56:42.196Z,99267.74
2018-10-16T06:59:16.731Z,99270.50
2018-10-16T07:01:51.684Z,99273.02
2018-10-16T07:04:26.172Z,99273.45
2018-10-16T07:07:00.960Z,99274.12
2018-10-16T07:09:35.425Z,99275.23
2018-10-16T07:12:10.233Z,99272.90
2018-10-16T07:14:44.800Z,99274.48
2018-10-16T07:17:19.566Z,99269.63
2018-10-16T07:19:54.302Z,99273.53
2018-10-16T07:22:28.993Z,99272.62
2018-10-16T07:25:03.550Z,99278.78
2018-10-16T07:30:37.240Z,99269.86
2018-10-16T07:33:12.289Z,99272.14
2018-10-16T07:35:47.942Z,99272.15
2018-10-16T07:38:23.045Z,99276.48
2018-10-16T07:40:57.946Z,99281.41
2018-10-16T07:43:32.506Z,99285.08
2018-10-16T07:46:07.093Z,99280.97
2018-10-16T07:48:42.298Z,99284.40
2018-10-16T07:51:28.985Z,99284.74
2018-10-16T07:54:03.525Z,99283.14
2018-10-16T07:56:38.233Z,99286.34
2018-10-16T07:59:13.409Z,99288.05
2018-10-16T08:01:48.160Z,99288.40
2018-10-16T08:04:22.689Z,99278.03
2018-10-16T08:06:57.155Z,99285.48
2018-10-16T08:09:31.942Z,99290.59
2018-10-16T08:12:09.185Z,99283.63
2018-10-16T08:14:43.668Z,99285.13
2018-10-16T08:17:18.300Z,99285.83
2018-10-16T08:19:52.819Z,99286.95
2018-10-16T08:22:27.272Z,99290.69
2018-10-16T08:25:01.843Z,99289.00
2018-10-16T08:27:36.684Z,99290.61
2018-10-16T08:30:11.682Z,99297.41
2018-10-16T08:32:46.320Z,99289.33
2018-10-16T08:35:21.252Z,99292.05
2018-10-16T08:40:05.095Z,99289.38
2018-10-16T08:42:50.954Z,99286.77
2018-10-16T08:45:37.068Z,99282.61
2018-10-16T08:48:23.066Z,99282.82
2018-10-16T08:51:09.076Z,99288.87
2018-10-16T08:53:43.513Z,99281.87
2018-10-16T08:56:18.009Z,99285.27
2018-10-16T08:58:52.441Z,99285.09
2018-10-16T09:01:27.208Z,99285.36
2018-10-16T09:04:06.517Z,99285.01
2018-10-16T09:06:41.291Z,99281.76
2018-10-16T09:09:17.041Z,99292.16
2018-10-16T09:11:51.526Z,99293.24
2018-10-16T09:14:26.212Z,99296.10
2018-10-16T09:17:01.221Z,99296.98
2018-10-16T09:19:35.674Z,99290.26
2018-10-16T09:22:10.191Z,99295.90
2018-10-16T09:24:44.936Z,99292.70
2018-10-16T09:27:19.535Z,99296.20
2018-10-16T09:29:54.051Z,99295.38
2018-10-16T09:32:28.465Z,99300.77
2018-10-16T09:35:02.984Z,99300.54
2018-10-16T09:37:37.756Z,99307.49
2018-10-16T09:40:13.346Z,99302.92
2018-10-16T09:42:47.836Z,99305.87
2018-10-16T09:45:22.540Z,99309.50
2018-10-16T09:47:57.102Z,99306.90
2018-10-16T09:50:32.007Z,99316.37
2018-10-16T09:53:07.797Z,99314.45
2018-10-16T09:55:44.802Z,99319.96
2018-10-16T09:58:19.525Z,99319.70
2018-10-16T10:00:59.361Z,99313.42
2018-10-16T10:03:33.864Z,99308.19
2018-10-16T10:06:11.789Z,99310.95
2018-10-16T10:08:46.572Z,99305.89
2018-10-16T10:14:30.649Z,99307.33
2018-10-16T10:17:06.176Z,99310.81
2018-10-16T10:19:48.801Z,99308.05
2018-10-16T10:22:23.424Z,99300.12
2018-10-16T10:24:58.041Z,99303.17
2018-10-16T10:27:32.833Z,99308.96
2018-10-16T10:30:10.513Z,99304.39
2018-10-16T10:32:47.101Z,99305.61
2018-10-16T10:35:22.169Z,99304.88
2018-10-16T10:38:08.360Z,99299.34
2018-10-16T10:40:43.013Z,99293.96
2018-10-16T10:43:17.692Z,99294.83
2018-10-16T10:45:52.286Z,99293.58
2018-10-16T10:48:26.946Z,99299.46
2018-10-16T10:51:02.143Z,99292.06
2018-10-16T10:53:36.415Z,99290.09
2018-10-16T10:56:10.941Z,99287.73
2018-10-16T10:58:47.630Z,99288.46
2018-10-16T11:01:22.333Z,99283.26
2018-10-16T11:03:57.021Z,99282.14
2018-10-16T11:06:31.917Z,99277.93
2018-10-16T11:09:08.820Z,99280.94
2018-10-16T11:11:48.841Z,99283.61
2018-10-16T11:14:24.240Z,99279.97
2018-10-16T11:16:58.783Z,99279.91
2018-10-16T11:19:33.552Z,99276.88
2018-10-16T11:22:27.277Z,99278.34
2018-10-16T11:25:01.891Z,99277.34
2018-10-16T11:27:37.112Z,99275.02
2018-10-16T11:30:13.619Z,99279.27
2018-10-16T11:32:48.014Z,99281.88
2018-10-16T11:35:22.588Z,99286.98
2018-10-16T11:37:57.208Z,99277.10
2018-10-16T11:40:31.826Z,99278.20
2018-10-16T11:43:06.400Z,99278.20
2018-10-16T11:45:40.936Z,99277.20
2018-10-16T11:48:23.081Z,99280.65
2018-10-16T11:50:59.811Z,99283.95
2018-10-16T11:53:39.938Z,99285.32
2018-10-16T11:56:15.329Z,99291.73
2018-10-16T11:59:02.420Z,99285.63
2018-10-16T12:01:36.918Z,99286.83
2018-10-16T12:04:11.769Z,99282.90
2018-10-16T12:06:46.866Z,99287.70
2018-10-16T12:09:36.817Z,99286.78
2018-10-16T12:12:11.601Z,99281.42
2018-10-16T12:15:00.493Z,99285.63
2018-10-16T12:17:39.948Z,99280.42
2018-10-16T12:20:20.428Z,99286.58
2018-10-16T12:22:54.979Z,99284.29
2018-10-16T12:25:29.831Z,99284.97
2018-10-16T12:28:04.373Z,99284.34
2018-10-16T12:30:39.013Z,99275.45
2018-10-16T12:33:13.491Z,99276.02
2018-10-16T12:35:48.341Z,99275.49
2018-10-16T12:38:23.836Z,99276.12
2018-10-16T12:40:58.549Z,99275.42
2018-10-16T12:43:34.399Z,99268.42
2018-10-16T12:46:08.947Z,99277.41
2018-10-16T12:48:44.419Z,99276.41
2018-10-16T12:51:22.090Z,99279.45
2018-10-16T12:54:05.568Z,99276.30
2018-10-16T12:59:48.618Z,99282.63
2018-10-16T13:05:29.916Z,99279.77
2018-10-16T13:08:04.355Z,99281.16
2018-10-16T13:10:38.601Z,99275.17
2018-10-16T13:13:13.024Z,99276.75
2018-10-16T13:15:47.463Z,99273.58
2018-10-16T13:18:21.893Z,99271.85
2018-10-16T13:20:56.154Z,99276.63
2018-10-16T13:23:30.449Z,99275.23
2018-10-16T13:26:05.095Z,99277.20
2018-10-16T13:28:39.283Z,99275.14
2018-10-16T13:31:13.593Z,99271.16
2018-10-16T13:33:47.798Z,99270.14
2018-10-16T13:36:22.271Z,99272.78
2018-10-16T13:38:56.742Z,99271.60
2018-10-16T13:41:31.286Z,99269.63
2018-10-16T13:44:05.781Z,99267.41
2018-10-16T13:46:39.927Z,99263.78
2018-10-16T13:49:14.527Z,99261.02
2018-10-16T13:51:49.055Z,99268.76
2018-10-16T13:54:23.908Z,99265.81
2018-10-16T13:56:58.683Z,99266.00
2018-10-16T13:59:33.240Z,99269.61
2018-10-16T14:02:07.626Z,99269.57
2018-10-16T14:04:42.346Z,99268.97
2018-10-16T14:07:16.996Z,99265.02
2018-10-16T14:09:51.353Z,99270.72
2018-10-16T14:12:25.804Z,99274.17
2018-10-16T14:15:00.129Z,99274.27
2018-10-16T14:17:34.517Z,99274.08
2018-10-16T14:20:09.858Z,99275.38
2018-10-16T14:22:44.431Z,99273.86
2018-10-16T14:25:24.947Z,99270.70
2018-10-16T14:28:00.155Z,99270.28
2018-10-16T14:30:34.763Z,99266.49
2018-10-16T14:33:11.211Z,99268.86
2018-10-16T14:35:45.608Z,99270.05
2018-10-16T14:38:20.009Z,99268.17
2018-10-16T14:40:55.083Z,99271.68
2018-10-16T14:43:30.451Z,99270.44
2018-10-16T14:49:06.624Z,99269.00
2018-10-16T14:51:51.152Z,99272.49
2018-10-16T14:54:26.544Z,99271.97
2018-10-16T14:57:01.174Z,99272.30
2018-10-16T14:59:39.198Z,99271.02
2018-10-16T15:02:14.086Z,99267.55
2018-10-16T15:05:01.252Z,99270.16
2018-10-16T15:07:36.204Z,99261.48
2018-10-16T15:10:11.939Z,99266.14
2018-10-16T15:12:47.045Z,99269.86
2018-10-16T15:15:38.323Z,99275.19
2018-10-16T15:18:12.981Z,99273.04
2018-10-16T15:20:47.904Z,99268.31
2018-10-16T15:23:22.876Z,99264.89
2018-10-16T15:25:57.351Z,99269.18
2018-10-16T15:28:32.297Z,99266.20
2018-10-16T15:31:07.197Z,99268.66
2018-10-16T15:33:41.990Z,99263.31
2018-10-16T15:36:16.863Z,99262.59
2018-10-16T15:38:51.996Z,99259.55
2018-10-16T15:41:26.364Z,99255.95
2018-10-16T15:44:01.011Z,99257.02
2018-10-16T15:46:35.492Z,99259.03
2018-10-16T15:49:10.224Z,99260.20
2018-10-16T15:51:44.965Z,99265.30
2018-10-16T15:54:20.064Z,99269.97
2018-10-16T15:56:55.067Z,99269.54
2018-10-16T15:59:29.516Z,99277.77
2018-10-16T16:02:04.176Z,99276.63
2018-10-16T16:04:39.268Z,99271.33
2018-10-16T16:07:14.308Z,99277.52
2018-10-16T16:09:48.709Z,99274.12
2018-10-16T16:12:23.293Z,99273.34
2018-10-16T16:14:57.954Z,99270.48
2018-10-16T16:17:32.520Z,99271.73
2018-10-16T16:20:08.961Z,99273.53
2018-10-16T16:22:43.937Z,99280.21
2018-10-16T16:25:18.778Z,99278.18
2018-10-16T16:27:53.536Z,99275.39
2018-10-16T16:30:28.155Z,99281.11
2018-10-16T16:33:02.790Z,99285.61
2018-10-16T16:35:37.781Z,99283.50
2018-10-16T16:38:12.499Z,99287.22
2018-10-16T16:40:47.548Z,99288.88
2018-10-16T16:43:21.986Z,99290.73
2018-10-16T16:45:56.914Z,99292.02
2018-10-16T16:48:31.575Z,99289.91
2018-10-16T16:51:06.193Z,99294.03
2018-10-16T16:53:40.897Z,99294.83
2018-10-16T16:56:15.799Z,99290.63
2018-10-16T16:58:50.718Z,99293.52
2018-10-16T17:01:25.273Z,99296.29
2018-10-16T17:03:59.844Z,99297.14
2018-10-16T17:06:34.348Z,99298.08
2018-10-16T17:09:10.152Z,99300.47
2018-10-16T17:11:44.771Z,99296.26
2018-10-16T17:14:19.252Z,99300.87
2018-10-16T17:16:53.904Z,99301.28
2018-10-16T17:19:28.853Z,99305.41
2018-10-16T17:22:03.469Z,99308.52
2018-10-16T17:24:38.298Z,99301.06
2018-10-16T17:27:12.825Z,99305.55
2018-10-16T17:29:47.458Z,99310.61
2018-10-16T17:32:22.277Z,99312.58
2018-10-16T17:34:56.821Z,99315.33
2018-10-16T17:37:32.265Z,99316.27
2018-10-16T17:40:08.468Z,99320.52
2018-10-16T17:42:43.707Z,99324.34
2018-10-16T17:45:18.433Z,99323.41
2018-10-16T17:50:53.355Z,99318.42
2018-10-16T17:53:29.264Z,99319.45
2018-10-16T17:56:03.880Z,99324.43
2018-10-16T17:58:43.927Z,99321.27
2018-10-16T18:01:18.444Z,99318.91
2018-10-16T18:03:52.892Z,99322.50
2018-10-16T18:06:27.489Z,99322.02
2018-10-16T18:09:02.226Z,99324.77
2018-10-16T18:11:36.909Z,99326.05
2018-10-16T18:14:11.681Z,99319.27
2018-10-16T18:16:46.572Z,99317.70
2018-10-16T18:19:21.150Z,99324.14
2018-10-16T18:21:55.774Z,99323.91
2018-10-16T18:24:30.472Z,99325.06
2018-10-16T18:27:05.385Z,99323.52
2018-10-16T18:29:40.037Z,99330.01
2018-10-16T18:32:14.717Z,99330.83
2018-10-16T18:34:49.632Z,99330.67
2018-10-16T18:37:24.650Z,99322.59
2018-10-16T18:39:59.385Z,99330.14
2018-10-16T18:42:34.285Z,99333.03
2018-10-16T18:45:10.285Z,99336.50
2018-10-16T18:47:44.609Z,99333.03
2018-10-16T18:50:19.321Z,99338.05
2018-10-16T18:52:53.988Z,99339.20
2018-10-16T18:55:28.917Z,99342.00
2018-10-16T18:58:03.902Z,99346.70
2018-10-16T19:00:39.484Z,99340.05
2018-10-16T19:03:14.392Z,99342.62
2018-10-16T19:05:49.406Z,99337.48
2018-10-16T19:08:24.403Z,99336.18
2018-10-16T19:10:59.080Z,99336.89
2018-10-16T19:13:33.577Z,99340.76
2018-10-16T19:16:08.194Z,99337.02
2018-10-16T19:18:42.975Z,99342.30
2018-10-16T19:21:17.465Z,99341.44
2018-10-16T19:23:52.101Z,99343.84
2018-10-16T19:26:27.203Z,99342.56
2018-10-16T19:29:02.934Z,99341.53
2018-10-16T19:31:37.605Z,99347.97
2018-10-16T19:34:12.088Z,99346.36
2018-10-16T19:36:46.849Z,99346.11
2018-10-16T19:39:25.445Z,99343.71
2018-10-16T19:42:00.167Z,99349.31
2018-10-16T19:44:35.006Z,99357.34
2018-10-16T19:47:09.972Z,99354.67
2018-10-16T19:49:44.721Z,99360.28
2018-10-16T19:52:19.400Z,99354.73
2018-10-16T19:54:54.156Z,99354.83
2018-10-16T19:57:29.465Z,99354.25
2018-10-16T20:00:04.375Z,99356.69
2018-10-16T20:02:39.268Z,99355.13
2018-10-16T20:05:13.687Z,99361.02
2018-10-16T20:08:01.737Z,99356.63
2018-10-16T20:10:40.201Z,99363.06
2018-10-16T20:13:15.362Z,99368.05
2018-10-16T20:15:50.180Z,99366.09
2018-10-16T20:18:24.734Z,99367.22
2018-10-16T20:20:59.807Z,99368.23
2018-10-16T20:23:41.118Z,99369.48
2018-10-16T20:26:16.261Z,99367.54
2018-10-16T20:28:51.004Z,99369.84
2018-10-16T20:31:25.461Z,99370.22
2018-10-16T20:34:00.289Z,99375.74
2018-10-16T20:36:38.520Z,99372.77
2018-10-16T20:39:14.243Z,99370.34
2018-10-16T20:41:48.899Z,99367.12
2018-10-16T20:44:23.732Z,99363.47
2018-10-16T20:46:58.508Z,99371.05
2018-10-16T20:52:33.061Z,99367.55
2018-10-16T20:55:07.887Z,99372.49
2018-10-16T20:57:42.661Z,99371.69
2018-10-16T21:00:17.244Z,99375.81
2018-10-16T21:02:51.841Z,99378.79
2018-10-16T21:05:26.560Z,99371.34
2018-10-16T21:08:01.004Z,99368.70
2018-10-16T21:10:35.834Z,99370.77
2018-10-16T21:13:10.569Z,99377.40
2018-10-16T21:15:45.141Z,99380.50
2018-10-16T21:18:19.644Z,99378.77
2018-10-16T21:20:54.276Z,99376.52
2018-10-16T21:23:29.052Z,99373.85
2018-10-16T21:26:03.877Z,99370.44
2018-10-16T21:28:38.452Z,99365.29
2018-10-16T21:31:13.327Z,99368.72
2018-10-16T21:33:48.264Z,99367.58
2018-10-16T21:36:23.068Z,99368.95
2018-10-16T21:38:57.732Z,99360.45
2018-10-16T21:41:32.344Z,99359.53
2018-10-16T21:44:07.807Z,99361.16
2018-10-16T21:46:48.568Z,99360.23
2018-10-16T21:49:24.048Z,99359.67
2018-10-16T21:51:58.996Z,99354.05
2018-10-16T21:54:55.579Z,99358.31
2018-10-16T21:57:30.229Z,99354.20
2018-10-16T22:00:05.781Z,99359.12
2018-10-16T22:02:49.768Z,99360.93
2018-10-16T22:05:24.864Z,99352.00
2018-10-16T22:07:59.579Z,99348.36
2018-10-16T22:10:34.144Z,99347.45
2018-10-16T22:13:10.726Z,99342.88
2018-10-16T22:15:50.653Z,99344.68
2018-10-16T22:18:25.621Z,99348.57
2018-10-16T22:21:00.301Z,99340.56
2018-10-16T22:23:35.302Z,99333.36
2018-10-16T22:26:09.937Z,99342.63
2018-10-16T22:28:44.676Z,99342.27
2018-10-16T22:31:19.921Z,99339.17
2018-10-16T22:33:55.047Z,99339.64
2018-10-16T22:36:29.600Z,99335.29
2018-10-16T22:39:05.845Z,99336.55
2018-10-16T22:41:40.390Z,99336.20
2018-10-16T22:44:15.573Z,99337.55
2018-10-16T22:46:50.345Z,99338.91
2018-10-16T22:49:24.932Z,99338.22
2018-10-16T22:52:00.300Z,99338.09
2018-10-16T22:54:35.053Z,99333.86
2018-10-16T22:57:09.605Z,99329.02
2018-10-16T22:59:44.396Z,99325.47
2018-10-16T23:02:19.028Z,99325.13
2018-10-16T23:04:53.831Z,99329.34
2018-10-16T23:07:29.994Z,99331.75
2018-10-16T23:10:07.218Z,99326.49
2018-10-16T23:12:41.912Z,99333.00
2018-10-16T23:15:17.173Z,99323.16
2018-10-16T23:17:51.997Z,99324.70
2018-10-16T23:20:33.551Z,99325.45
2018-10-16T23:23:08.450Z,99334.56
2018-10-16T23:25:43.076Z,99335.46
2018-10-16T23:28:30.080Z,99328.95
2018-10-16T23:31:05.119Z,99327.58
2018-10-16T23:33:39.620Z,99331.80
2018-10-16T23:36:14.429Z,99331.33
2018-10-16T23:38:49.114Z,99329.73
2018-10-16T23:41:23.721Z,99320.14
2018-10-16T23:43:58.199Z,99321.72
2018-10-16T23:46:32.956Z,99323.13
2018-10-16T23:49:08.347Z,99320.27
2018-10-16T23:51:42.953Z,99315.56
2018-10-16T23:54:18.136Z,99321.38
2018-10-16T23:56:53.391Z,99321.81
2018-10-16T23:59:28.620Z,99319.54
